createdAt,value
2022-10-23T00:04:13.155Z,98723.61
2022-10-23T00:09:34.855Z,98731.36
2022-10-23T00:14:56.202Z,98735.52
2022-10-23T00:20:18.318Z,98736.52
2022-10-23T00:25:40.006Z,98732.91
2022-10-23T00:31:03.380Z,98733.44
2022-10-23T00:36:25.310Z,98735.31
2022-10-23T00:41:46.573Z,98738.37
2022-10-23T00:47:08.666Z,98733.33
2022-10-23T00:52:30.997Z,98730.68
2022-10-23T00:57:53.344Z,98739.20
2022-10-23T01:03:16.872Z,98740.83
2022-10-23T01:08:50.031Z,98740.64
2022-10-23T01:14:47.456Z,98748.55
2022-10-23T01:20:27.880Z,98749.69
2022-10-23T01:26:07.450Z,98752.40
2022-10-23T01:31:39.539Z,98747.88
2022-10-23T01:37:02.527Z,98750.77
2022-10-23T01:42:30.427Z,98753.03
2022-10-23T01:47:53.607Z,98758.16
2022-10-23T01:53:16.284Z,98759.00
2022-10-23T01:58:40.021Z,98762.45
2022-10-23T02:04:03.755Z,98755.55
2022-10-23T02:09:26.186Z,98754.85
2022-10-23T02:14:54.444Z,98757.11
2022-10-23T02:20:21.498Z,98760.66
2022-10-23T02:25:47.488Z,98766.52
2022-10-23T02:31:14.477Z,98774.63
2022-10-23T02:36:37.634Z,98780.67
2022-10-23T02:42:06.661Z,98780.88
2022-10-23T02:47:32.451Z,98781.36
2022-10-23T02:53:00.103Z,98780.14
2022-10-23T02:58:29.633Z,98777.74
2022-10-23T03:03:54.255Z,98777.74
2022-10-23T03:09:15.893Z,98782.03
2022-10-23T03:14:37.407Z,98783.62
2022-10-23T03:19:59.543Z,98785.02
2022-10-23T03:25:21.267Z,98786.88
2022-10-23T03:30:43.396Z,98788.25
2022-10-23T03:36:06.017Z,98785.51
2022-10-23T03:41:28.057Z,98791.49
2022-10-23T03:46:49.490Z,98798.39
2022-10-23T03:52:10.994Z,98799.34
2022-10-23T03:57:33.405Z,98801.87
2022-10-23T04:02:55.194Z,98799.01
2022-10-23T04:08:20.005Z,98794.77
2022-10-23T04:13:44.751Z,98781.86
2022-10-23T04:19:06.474Z,98778.95
2022-10-23T04:24:28.109Z,98778.08
2022-10-23T04:29:50.571Z,98776.91
2022-10-23T04:35:13.071Z,98779.77
2022-10-23T04:40:34.797Z,98778.55
2022-10-23T04:45:56.528Z,98779.21
2022-10-23T04:51:18.371Z,98778.36
2022-10-23T04:56:46.213Z,98782.00
2022-10-23T05:02:11.188Z,98781.02
2022-10-23T05:07:33.968Z,98780.89
2022-10-23T05:13:06.446Z,98786.69
2022-10-23T05:18:27.973Z,98788.14
2022-10-23T05:23:49.879Z,98793.38
2022-10-23T05:29:12.098Z,98796.02
2022-10-23T05:34:35.769Z,98798.30
2022-10-23T05:39:59.003Z,98812.28
2022-10-23T05:45:21.676Z,98821.23
2022-10-23T05:51:06.750Z,98825.83
2022-10-23T05:56:52.005Z,98829.98
2022-10-23T06:02:33.496Z,98832.11
2022-10-23T06:08:00.302Z,98838.48
2022-10-23T06:13:22.505Z,98845.20
2022-10-23T06:18:46.128Z,98857.27
2022-10-23T06:24:09.906Z,98862.60
2022-10-23T06:29:52.238Z,98868.56
2022-10-23T06:35:14.742Z,98865.61
2022-10-23T06:40:37.872Z,98870.92
2022-10-23T06:46:03.361Z,98874.73
2022-10-23T06:51:51.025Z,98884.93
2022-10-23T06:57:15.769Z,98873.42
2022-10-23T07:02:39.906Z,98859.01
2022-10-23T07:08:02.136Z,98852.38
2022-10-23T07:13:29.988Z,98857.80
2022-10-23T07:19:09.075Z,98869.73
2022-10-23T07:25:05.529Z,98877.95
2022-10-23T07:30:31.786Z,98880.23
2022-10-23T07:35:54.303Z,98869.90
2022-10-23T07:41:21.648Z,98862.86
2022-10-23T07:46:43.782Z,98869.26
2022-10-23T07:52:06.314Z,98883.83
2022-10-23T07:57:39.848Z,98888.73
2022-10-23T08:03:18.520Z,98886.41
2022-10-23T08:08:41.710Z,98883.73
2022-10-23T08:14:06.100Z,98876.17
2022-10-23T08:19:28.418Z,98881.52
2022-10-23T08:24:54.316Z,98883.30
2022-10-23T08:30:17.109Z,98880.18
2022-10-23T08:35:40.361Z,98893.96
2022-10-23T08:41:03.415Z,98897.91
2022-10-23T08:46:53.490Z,98900.83
2022-10-23T08:52:43.527Z,98905.27
2022-10-23T08:58:23.707Z,98912.51
2022-10-23T09:03:45.795Z,98920.64
2022-10-23T09:09:43.013Z,98930.63
2022-10-23T09:15:23.486Z,98933.21
2022-10-23T09:20:46.577Z,98941.68
2022-10-23T09:26:15.029Z,98936.66
2022-10-23T09:31:48.617Z,98927.55
2022-10-23T09:37:26.895Z,98928.10
2022-10-23T09:42:51.792Z,98931.61
2022-10-23T09:48:16.262Z,98945.43
2022-10-23T09:53:40.606Z,98949.74
2022-10-23T09:59:06.042Z,98935.63
2022-10-23T10:04:36.652Z,98925.36
2022-10-23T10:09:58.276Z,98919.72
2022-10-23T10:15:26.677Z,98916.64
2022-10-23T10:21:00.037Z,98915.61
2022-10-23T10:32:22.522Z,98889.70
2022-10-23T10:38:06.829Z,98887.15
2022-10-23T10:43:41.825Z,98885.77
2022-10-23T10:49:07.351Z,98883.48
2022-10-23T10:54:42.078Z,98882.09
2022-10-23T11:00:17.076Z,98871.93
2022-10-23T11:05:42.768Z,98854.27
2022-10-23T11:11:12.173Z,98842.80
2022-10-23T11:16:36.925Z,98836.52
2022-10-23T11:22:09.533Z,98832.34
2022-10-23T11:27:42.905Z,98820.36
2022-10-23T11:33:12.799Z,98812.61
2022-10-23T11:38:37.055Z,98810.73
2022-10-23T11:44:03.590Z,98800.70
2022-10-23T11:49:25.559Z,98785.54
2022-10-23T11:54:47.601Z,98773.31
2022-10-23T12:00:21.747Z,98757.21
2022-10-23T12:05:45.842Z,98745.93
2022-10-23T12:11:40.203Z,98750.77
2022-10-23T12:17:02.177Z,98748.05
2022-10-23T12:22:28.134Z,98748.40
2022-10-23T12:28:09.116Z,98749.80
2022-10-23T12:33:41.683Z,98739.64
2022-10-23T12:39:03.311Z,98734.50
2022-10-23T12:44:25.946Z,98726.74
2022-10-23T12:49:49.477Z,98716.85
2022-10-23T12:55:14.332Z,98714.96
2022-10-23T13:00:35.900Z,98715.80
2022-10-23T13:05:59.279Z,98711.40
2022-10-23T13:11:21.962Z,98707.04
2022-10-23T13:16:44.849Z,98706.46
2022-10-23T13:22:21.373Z,98700.89
2022-10-23T13:27:43.499Z,98696.19
2022-10-23T13:33:20.728Z,98689.42
2022-10-23T13:38:45.236Z,98690.61
2022-10-23T13:44:10.594Z,98689.50
2022-10-23T13:49:32.749Z,98688.24
2022-10-23T13:54:54.850Z,98685.17
2022-10-23T14:00:18.018Z,98680.60
2022-10-23T14:05:40.902Z,98674.80
2022-10-23T14:11:02.899Z,98670.25
2022-10-23T14:16:24.866Z,98669.92
2022-10-23T14:21:46.827Z,98668.21
2022-10-23T14:27:08.966Z,98663.27
2022-10-23T14:32:31.054Z,98667.63
2022-10-23T14:37:52.889Z,98662.00
2022-10-23T14:43:14.650Z,98663.13
2022-10-23T14:48:37.941Z,98658.45
2022-10-23T14:54:01.920Z,98655.34
2022-10-23T14:59:23.666Z,98649.65
2022-10-23T15:04:45.268Z,98647.69
2022-10-23T15:10:08.720Z,98642.41
2022-10-23T15:15:30.954Z,98641.08
2022-10-23T15:20:52.975Z,98639.11
2022-10-23T15:26:22.787Z,98638.86
2022-10-23T15:31:58.421Z,98645.36
2022-10-23T15:37:20.337Z,98643.91
2022-10-23T15:42:42.372Z,98645.06
2022-10-23T15:48:05.809Z,98647.69
2022-10-23T15:53:27.703Z,98641.66
2022-10-23T15:58:49.358Z,98643.34
2022-10-23T16:04:11.490Z,98651.34
2022-10-23T16:09:33.193Z,98659.30
2022-10-23T16:14:55.364Z,98662.59
2022-10-23T16:20:17.384Z,98661.21
2022-10-23T16:25:39.613Z,98662.27
2022-10-23T16:31:01.521Z,98669.02
2022-10-23T16:36:23.175Z,98668.35
2022-10-23T16:42:11.131Z,98674.93
2022-10-23T16:47:43.438Z,98673.21
2022-10-23T16:53:05.168Z,98683.58
2022-10-23T16:58:27.265Z,98684.27
2022-10-23T17:03:51.749Z,98688.06
2022-10-23T17:09:13.425Z,98703.59
2022-10-23T17:14:35.306Z,98706.52
2022-10-23T17:19:57.435Z,98702.21
2022-10-23T17:25:19.172Z,98696.52
2022-10-23T17:30:41.395Z,98694.64
2022-10-23T17:36:03.525Z,98693.09
2022-10-23T17:41:25.956Z,98683.92
2022-10-23T17:46:53.972Z,98675.64
2022-10-23T17:52:16.787Z,98671.50
2022-10-23T17:57:38.671Z,98663.56
2022-10-23T18:03:00.145Z,98661.31
2022-10-23T18:08:21.724Z,98658.38
2022-10-23T18:13:43.659Z,98653.20
2022-10-23T18:19:05.382Z,98650.59
2022-10-23T18:24:27.312Z,98644.85
2022-10-23T18:29:49.744Z,98641.19
2022-10-23T18:35:11.573Z,98639.09
2022-10-23T18:40:34.553Z,98621.65
2022-10-23T18:45:56.249Z,98627.80
2022-10-23T18:51:24.444Z,98637.11
2022-10-23T18:56:47.242Z,98628.29
2022-10-23T19:02:11.740Z,98619.65
2022-10-23T19:07:34.397Z,98622.74
2022-10-23T19:12:56.020Z,98626.58
2022-10-23T19:18:17.991Z,98627.43
2022-10-23T19:23:41.093Z,98622.08
2022-10-23T19:29:02.936Z,98617.43
2022-10-23T19:34:25.212Z,98628.43
2022-10-23T19:39:46.804Z,98630.13
2022-10-23T19:45:12.008Z,98634.91
2022-10-23T19:50:33.480Z,98631.95
2022-10-23T19:56:06.853Z,98620.37
2022-10-23T20:01:28.823Z,98599.55
2022-10-23T20:06:51.109Z,98595.67
2022-10-23T20:12:12.805Z,98586.71
2022-10-23T20:17:34.523Z,98581.38
2022-10-23T20:22:56.353Z,98580.67
2022-10-23T20:28:18.092Z,98570.68
2022-10-23T20:33:41.044Z,98556.34
2022-10-23T20:39:05.852Z,98554.77
2022-10-23T20:44:27.879Z,98553.40
2022-10-23T20:49:49.662Z,98568.15
2022-10-23T20:55:11.484Z,98580.95
2022-10-23T21:00:33.177Z,98576.71
2022-10-23T21:05:54.595Z,98567.80
2022-10-23T21:11:17.527Z,98559.08
2022-10-23T21:16:46.545Z,98560.53
2022-10-23T21:22:08.512Z,98567.07
2022-10-23T21:27:30.843Z,98566.92
2022-10-23T21:32:52.572Z,98566.77
2022-10-23T21:38:13.901Z,98570.36
2022-10-23T21:43:35.990Z,98563.34
2022-10-23T21:48:59.992Z,98551.23
2022-10-23T21:54:21.996Z,98533.65
2022-10-23T21:59:44.329Z,98523.51
2022-10-23T22:05:06.556Z,98520.09
2022-10-23T22:10:28.387Z,98522.83
2022-10-23T22:15:50.186Z,98521.56
2022-10-23T22:21:15.451Z,98513.89
2022-10-23T22:26:39.482Z,98512.67
2022-10-23T22:32:01.897Z,98518.93
2022-10-23T22:37:23.651Z,98516.14
2022-10-23T22:42:45.608Z,98520.58
2022-10-23T22:48:08.752Z,98514.16
2022-10-23T22:53:30.488Z,98514.63
2022-10-23T22:58:52.866Z,98505.79
2022-10-23T23:04:41.679Z,98490.93
2022-10-23T23:09:59.914Z,98478.65
2022-10-23T23:15:21.443Z,98477.64
2022-10-23T23:20:42.815Z,98483.70
2022-10-23T23:26:06.705Z,98478.57
2022-10-23T23:31:28.276Z,98477.39
2022-10-23T23:36:49.994Z,98477.08
2022-10-23T23:42:12.195Z,98470.16
2022-10-23T23:47:33.818Z,98462.17
2022-10-23T23:52:55.653Z,98463.73
2022-10-23T23:58:17.675Z,98459.63
